Time;durP1;ratioP1;P1;durP2;ratioP2;P2;SDS_P1;SDS_P2;PMS_P1;PMS_P2;Temp;Humidity;BMP_temperature;BMP_pressure;BME280_temperature;BME280_humidity;BME280_pressure;Samples;Min_cycle;Max_cycle;Signal;HPM_P1;HPM_P2
2023/08/18 00:00:00;;;;;;;;;8.00;8.00;;;;;25.90;54.13;101292.50;109962;1266;20070;-70
2023/08/18 00:02:26;;;;;;;;;9.00;8.50;;;;;25.92;54.04;101296.85;109973;1265;22173;-70
2023/08/18 00:04:52;;;;;;;;;9.33;8.00;;;;;25.90;54.01;101298.96;109947;1266;22120;-70
2023/08/18 00:07:18;;;;;;;;;8.00;8.00;;;;;25.89;54.28;101293.48;109951;1250;21121;-70
2023/08/18 00:09:44;;;;;;;;;11.00;9.00;;;;;25.87;54.25;101295.92;109957;1265;19280;-69
2023/08/18 00:12:10;;;;;;;;;8.00;8.00;;;;;25.85;54.40;101292.98;109915;1251;19356;-69
2023/08/18 00:14:36;;;;;;;;;9.50;9.00;;;;;25.82;54.54;101287.63;109989;1266;18832;-69
2023/08/18 00:17:02;;;;;;;;;7.00;7.00;;;;;25.87;54.27;101290.87;109928;1251;21958;-70
2023/08/18 00:19:28;;;;;;;;;8.50;8.50;;;;;25.82;54.38;101284.51;109952;1250;18503;-69
2023/08/18 00:21:54;;;;;;;;;8.00;8.00;;;;;25.83;54.49;101290.91;110026;1266;18586;-70
2023/08/18 00:24:20;;;;;;;;;8.00;7.00;;;;;25.79;54.66;101294.58;109966;1250;20757;-69
2023/08/18 00:26:46;;;;;;;;;8.00;7.50;;;;;25.78;54.48;101300.80;109970;1250;18468;-69
2023/08/18 00:29:12;;;;;;;;;7.00;7.00;;;;;25.79;54.58;101295.67;109947;1266;18621;-69
2023/08/18 00:31:38;;;;;;;;;8.00;8.00;;;;;25.79;54.60;101278.98;109972;1266;21657;-70
2023/08/18 00:34:04;;;;;;;;;9.00;9.00;;;;;25.77;54.82;101270.89;110025;1266;22759;-70
2023/08/18 00:36:30;;;;;;;;;8.00;8.00;;;;;25.77;54.83;101271.23;110006;1266;18633;-71
2023/08/18 00:38:58;;;;;;;;;8.00;8.00;;;;;25.75;54.70;101264.01;109991;1251;22772;-69
2023/08/18 00:41:24;;;;;;;;;;;;;;;25.74;54.84;101263.08;110054;1266;19801;-69
2023/08/18 00:43:50;;;;;;;;;8.00;8.00;;;;;25.75;54.61;101267.85;110028;1251;19441;-71
2023/08/18 00:46:16;;;;;;;;;9.00;9.00;;;;;25.77;54.67;101264.80;110071;1266;20894;-70
2023/08/18 00:48:42;;;;;;;;;7.50;7.50;;;;;25.75;54.58;101260.22;110006;1267;19838;-70
2023/08/18 00:51:08;;;;;;;;;8.00;8.00;;;;;25.73;54.73;101256.71;110013;1250;20079;-69
2023/08/18 00:53:34;;;;;;;;;11.00;11.00;;;;;25.74;54.65;101253.09;109958;1266;21528;-70
2023/08/18 00:56:01;;;;;;;;;8.00;8.00;;;;;25.73;54.67;101248.00;109928;1251;22809;-70
2023/08/18 00:58:27;;;;;;;;;9.00;9.00;;;;;25.70;54.92;101245.52;109978;1266;18655;-70
2023/08/18 01:00:53;;;;;;;;;8.00;8.00;;;;;25.69;54.70;101242.88;109958;1251;22344;-69
2023/08/18 01:03:19;;;;;;;;;11.50;8.50;;;;;25.69;54.90;101238.06;109964;1259;19492;-69
2023/08/18 01:05:45;;;;;;;;;9.00;9.00;;;;;25.70;54.73;101242.92;110032;1266;18729;-69
2023/08/18 01:08:11;;;;;;;;;11.00;9.00;;;;;25.70;54.78;101242.83;110020;1266;20736;-69
2023/08/18 01:10:37;;;;;;;;;9.00;8.00;;;;;25.70;54.77;101237.66;109974;1266;19546;-69
2023/08/18 01:13:03;;;;;;;;;9.00;8.00;;;;;25.68;54.92;101233.56;109941;1266;18651;-69
2023/08/18 01:15:29;;;;;;;;;9.50;8.00;;;;;25.68;54.90;101225.29;109978;1250;20750;-69
2023/08/18 01:17:55;;;;;;;;;9.00;9.00;;;;;25.70;55.04;101225.91;109966;1260;18158;-69
2023/08/18 01:20:22;;;;;;;;;8.00;7.00;;;;;25.70;54.80;101220.21;109994;1251;20012;-69
2023/08/18 01:22:48;;;;;;;;;11.00;8.00;;;;;25.69;54.99;101215.89;109952;1251;21936;-69
2023/08/18 01:25:14;;;;;;;;;11.00;8.50;;;;;25.69;54.89;101225.22;109951;1250;22357;-69
2023/08/18 01:27:40;;;;;;;;;13.00;11.00;;;;;25.69;55.05;101218.90;109964;1251;19970;-69
2023/08/18 01:30:06;;;;;;;;;8.00;8.00;;;;;25.70;55.16;101223.77;109981;1250;20837;-69
2023/08/18 01:32:32;;;;;;;;;12.00;12.00;;;;;25.68;55.14;101224.02;109961;1265;18558;-69
2023/08/18 01:34:58;;;;;;;;;9.00;8.00;;;;;25.68;55.31;101218.91;109938;1259;21033;-69
2023/08/18 01:37:24;;;;;;;;;8.00;7.00;;;;;25.66;55.17;101214.38;109964;1265;19126;-70
2023/08/18 01:39:50;;;;;;;;;8.00;7.33;;;;;25.67;55.18;101216.02;110002;1251;19584;-70
2023/08/18 01:42:16;;;;;;;;;8.00;8.00;;;;;25.68;55.33;101221.44;109996;1265;18394;-70
2023/08/18 01:44:42;;;;;;;;;8.00;8.00;;;;;25.64;55.30;101224.75;109961;1250;20739;-71
2023/08/18 01:47:08;;;;;;;;;12.00;11.00;;;;;25.65;55.27;101225.69;109984;1260;18385;-71
2023/08/18 01:49:34;;;;;;;;;8.00;8.00;;;;;25.64;55.47;101226.84;110007;1266;20108;-70
2023/08/18 01:52:00;;;;;;;;;9.00;9.00;;;;;25.62;55.64;101229.65;110000;1250;22737;-71
2023/08/18 01:54:26;;;;;;;;;9.00;8.00;;;;;25.62;55.63;101232.27;109993;1251;22705;-69
2023/08/18 01:56:52;;;;;;;;;8.50;8.00;;;;;25.62;55.49;101229.11;109953;1265;22791;-69
2023/08/18 01:59:18;;;;;;;;;10.00;10.00;;;;;25.60;55.58;101226.94;109970;1266;19069;-69
2023/08/18 02:01:44;;;;;;;;;8.50;8.50;;;;;25.58;55.80;101222.84;109997;1265;18359;-69
2023/08/18 02:04:10;;;;;;;;;15.00;15.00;;;;;25.60;55.59;101225.67;109979;1265;18576;-70
2023/08/18 02:06:36;;;;;;;;;10.50;10.50;;;;;25.60;55.58;101223.04;109975;1251;22341;-71
2023/08/18 02:09:03;;;;;;;;;12.00;11.00;;;;;25.59;55.79;101226.95;109970;1266;18736;-69
2023/08/18 02:11:29;;;;;;;;;12.00;12.00;;;;;25.58;55.80;101229.55;109936;1250;22460;-70
2023/08/18 02:13:55;;;;;;;;;12.00;12.00;;;;;25.57;55.72;101232.34;109942;1251;20858;-69
2023/08/18 02:16:21;;;;;;;;;13.00;12.00;;;;;25.56;55.69;101240.64;109911;1251;20067;-69
2023/08/18 02:18:47;;;;;;;;;13.00;11.00;;;;;25.56;56.00;101255.40;109946;1250;20069;-69
2023/08/18 02:21:14;;;;;;;;;12.00;12.00;;;;;25.59;55.79;101257.56;109974;1266;19581;-69
2023/08/18 02:23:40;;;;;;;;;12.00;12.00;;;;;25.62;55.84;101259.23;109963;1266;20088;-70
2023/08/18 02:26:06;;;;;;;;;10.00;10.00;;;;;25.57;55.86;101253.25;109929;1250;19867;-69
2023/08/18 02:28:32;;;;;;;;;11.50;11.00;;;;;25.56;55.95;101249.91;109990;1259;20648;-69
2023/08/18 02:30:58;;;;;;;;;12.50;12.00;;;;;25.55;55.80;101250.52;110035;1250;21035;-69
2023/08/18 02:33:24;;;;;;;;;12.00;11.00;;;;;25.51;56.14;101244.14;109990;1251;20018;-70
2023/08/18 02:35:50;;;;;;;;;8.00;8.00;;;;;25.52;55.90;101237.39;109967;1266;22360;-69
2023/08/18 02:38:16;;;;;;;;;10.00;10.00;;;;;25.57;55.84;101240.30;109978;1251;19895;-69
2023/08/18 02:40:42;;;;;;;;;11.00;10.00;;;;;25.55;55.98;101236.38;110024;1265;18758;-69
2023/08/18 02:43:08;;;;;;;;;11.00;10.00;;;;;25.54;56.13;101232.42;109975;1251;22167;-72
2023/08/18 02:45:34;;;;;;;;;10.00;10.00;;;;;25.53;56.14;101233.76;109957;1265;18778;-68
2023/08/18 02:48:00;;;;;;;;;10.00;10.00;;;;;25.51;56.21;101240.53;109981;1266;22186;-69
2023/08/18 02:50:26;;;;;;;;;12.00;12.00;;;;;25.53;56.17;101238.14;110066;1266;19366;-69
2023/08/18 02:52:52;;;;;;;;;11.00;10.00;;;;;25.52;56.22;101234.31;110044;1251;20112;-68
2023/08/18 02:55:18;;;;;;;;;8.00;8.00;;;;;25.52;56.21;101235.09;109984;1251;19781;-69
2023/08/18 02:57:44;;;;;;;;;10.00;10.00;;;;;25.52;56.16;101232.52;109963;1251;20895;-69
2023/08/18 03:00:11;;;;;;;;;12.00;11.00;;;;;25.51;56.15;101231.91;109930;1260;20933;-70
2023/08/18 03:02:37;;;;;;;;;13.00;12.00;;;;;25.46;56.58;101236.19;109930;1266;22392;-70
2023/08/18 03:05:03;;;;;;;;;12.50;12.00;;;;;25.48;56.24;101238.64;109967;1251;21949;-70
2023/08/18 03:07:29;;;;;;;;;11.00;10.00;;;;;25.48;56.23;101234.89;109987;1250;20143;-70
2023/08/18 03:09:55;;;;;;;;;12.00;11.00;;;;;25.48;56.29;101237.09;110033;1251;20067;-69
2023/08/18 03:12:21;;;;;;;;;11.67;11.33;;;;;25.47;56.46;101229.44;110025;1251;20762;-69
2023/08/18 03:14:47;;;;;;;;;12.67;11.67;;;;;25.47;56.24;101234.74;110025;1251;20043;-70
2023/08/18 03:17:13;;;;;;;;;12.00;11.00;;;;;25.46;56.36;101239.04;109930;1251;22790;-69
2023/08/18 03:19:39;;;;;;;;;11.50;11.00;;;;;25.45;56.41;101240.38;109968;1251;20656;-69
2023/08/18 03:22:05;;;;;;;;;15.50;12.00;;;;;25.44;56.35;101244.27;109978;1266;18621;-70
2023/08/18 03:24:31;;;;;;;;;11.50;10.00;;;;;25.43;56.24;101246.31;109944;1265;21861;-70
2023/08/18 03:26:57;;;;;;;;;16.00;13.00;;;;;25.47;56.35;101247.64;109975;1265;19243;-70
2023/08/18 03:29:23;;;;;;;;;12.50;12.00;;;;;25.45;56.34;101247.50;109965;1250;20031;-70
2023/08/18 03:31:49;;;;;;;;;11.50;11.00;;;;;25.44;56.28;101255.85;110004;1251;20208;-69
2023/08/18 03:34:15;;;;;;;;;13.00;12.00;;;;;25.43;56.35;101250.98;110069;1265;19358;-69
2023/08/18 03:36:41;;;;;;;;;12.00;12.00;;;;;25.42;56.45;101248.90;110027;1260;19727;-69
2023/08/18 03:39:07;;;;;;;;;17.50;17.00;;;;;25.40;56.52;101250.02;110000;1266;18461;-69
2023/08/18 03:41:34;;;;;;;;;19.50;18.00;;;;;25.43;56.17;101253.39;110018;1250;20796;-70
2023/08/18 03:44:00;;;;;;;;;21.00;20.00;;;;;25.43;56.10;101252.52;109944;1266;18368;-70
2023/08/18 03:46:26;;;;;;;;;24.00;20.00;;;;;25.43;56.23;101254.98;109961;1260;19867;-70
2023/08/18 03:48:52;;;;;;;;;18.00;17.00;;;;;25.41;56.23;101242.11;109999;1251;20697;-69
2023/08/18 03:51:18;;;;;;;;;16.50;16.00;;;;;25.39;56.47;101241.52;110001;1251;19946;-70
2023/08/18 03:53:44;;;;;;;;;16.50;15.50;;;;;25.38;56.29;101246.80;110003;1251;20131;-70
2023/08/18 03:56:10;;;;;;;;;17.00;15.00;;;;;25.40;56.34;101251.72;110021;1251;20743;-69
2023/08/18 03:58:36;;;;;;;;;16.50;15.50;;;;;25.42;56.08;101250.77;110024;1260;22306;-70
2023/08/18 04:01:02;;;;;;;;;20.50;17.00;;;;;25.39;56.01;101247.73;110033;1266;19189;-69
2023/08/18 04:03:28;;;;;;;;;15.50;15.50;;;;;25.41;56.24;101253.41;110026;1251;20962;-70
2023/08/18 04:05:54;;;;;;;;;20.00;18.00;;;;;25.38;56.26;101251.13;110074;1265;18587;-71
2023/08/18 04:08:20;;;;;;;;;17.00;17.00;;;;;25.35;56.25;101249.73;110079;1251;20336;-70
2023/08/18 04:10:46;;;;;;;;;21.00;20.00;;;;;25.34;56.47;101246.78;110038;1266;19311;-70
2023/08/18 04:13:13;;;;;;;;;21.50;20.00;;;;;25.34;56.32;101248.49;110061;1266;22679;-70
2023/08/18 04:15:39;;;;;;;;;18.00;16.00;;;;;25.40;56.09;101246.13;110048;1251;21304;-71
2023/08/18 04:18:05;;;;;;;;;17.00;15.00;;;;;25.38;56.02;101243.34;110027;1251;22016;-69
2023/08/18 04:20:31;;;;;;;;;16.00;16.00;;;;;25.36;56.18;101245.84;110020;1265;18490;-69
2023/08/18 04:22:57;;;;;;;;;17.00;16.00;;;;;25.37;56.41;101247.59;110009;1265;18743;-70
2023/08/18 04:25:23;;;;;;;;;28.00;26.00;;;;;25.40;56.15;101249.75;110029;1251;20720;-69
2023/08/18 04:27:49;;;;;;;;;29.00;25.50;;;;;25.36;56.18;101254.11;109996;1250;19883;-69
2023/08/18 04:30:15;;;;;;;;;36.00;30.00;;;;;25.35;56.30;101247.82;109968;1250;22165;-71
2023/08/18 04:32:41;;;;;;;;;32.00;27.00;;;;;25.33;56.36;101246.20;109993;1265;21890;-75
2023/08/18 04:35:08;;;;;;;;;30.00;26.00;;;;;25.33;56.34;101251.19;110001;1250;19762;-70
2023/08/18 04:37:34;;;;;;;;;27.67;25.33;;;;;25.31;56.24;101252.14;110037;1266;20026;-69
2023/08/18 04:40:00;;;;;;;;;33.00;30.00;;;;;25.34;56.14;101261.16;109983;1266;20681;-70
2023/08/18 04:42:26;;;;;;;;;34.00;33.00;;;;;25.32;56.22;101264.25;109998;1266;19898;-69
2023/08/18 04:44:52;;;;;;;;;41.00;33.00;;;;;25.32;56.31;101264.90;109973;1265;19936;-70
2023/08/18 04:47:18;;;;;;;;;26.00;25.00;;;;;25.32;56.18;101268.36;109967;1250;22675;-71
2023/08/18 04:49:44;;;;;;;;;28.00;27.00;;;;;25.32;56.45;101265.62;109931;1251;20024;-69
2023/08/18 04:52:11;;;;;;;;;31.50;26.00;;;;;25.31;56.37;101261.67;109951;1260;20093;-70
2023/08/18 04:54:37;;;;;;;;;27.00;26.00;;;;;25.33;56.27;101268.30;109953;1251;20722;-69
2023/08/18 04:57:03;;;;;;;;;27.00;26.00;;;;;25.32;56.26;101280.15;109933;1251;20008;-70
2023/08/18 04:59:29;;;;;;;;;28.00;24.00;;;;;25.30;56.12;101290.76;109974;1250;22816;-70
2023/08/18 05:01:55;;;;;;;;;28.00;24.50;;;;;25.05;56.94;101286.74;109990;1251;20613;-69
2023/08/18 05:04:21;;;;;;;;;26.00;25.00;;;;;24.84;57.81;101282.15;110002;1266;18673;-69
2023/08/18 05:06:47;;;;;;;;;21.50;21.00;;;;;24.83;58.09;101292.13;110005;1265;18863;-69
2023/08/18 05:09:13;;;;;;;;;25.00;25.00;;;;;24.84;57.67;101293.38;109978;1250;22328;-69
2023/08/18 05:11:39;;;;;;;;;37.00;36.00;;;;;24.80;58.12;101287.17;109955;1266;19846;-70
2023/08/18 05:14:06;;;;;;;;;32.00;30.00;;;;;24.82;57.87;101289.55;110001;1251;20267;-73
2023/08/18 05:16:32;;;;;;;;;32.50;28.50;;;;;24.98;57.38;101302.31;110010;1266;19520;-76
2023/08/18 05:18:58;;;;;;;;;35.00;26.00;;;;;25.05;57.31;101300.17;110010;1251;20085;-79
2023/08/18 05:21:24;;;;;;;;;34.00;31.50;;;;;25.16;56.93;101299.81;109991;1265;18820;-77
2023/08/18 05:23:50;;;;;;;;;36.33;32.67;;;;;25.18;56.98;101306.70;109972;1265;19399;-75
2023/08/18 05:26:16;;;;;;;;;136.00;104.00;;;;;25.21;56.96;101294.39;109977;1251;20083;-73
2023/08/18 05:28:44;;;;;;;;;196.50;149.50;;;;;25.14;57.21;101287.44;110037;1259;18815;-76
2023/08/18 05:31:10;;;;;;;;;250.00;172.00;;;;;25.22;56.79;101290.17;110073;1251;20823;-81
2023/08/18 05:33:36;;;;;;;;;136.50;106.00;;;;;25.25;56.75;101278.19;110028;1265;18949;-80
2023/08/18 05:36:02;;;;;;;;;95.00;72.50;;;;;25.26;56.61;101273.18;110020;1250;20174;-79
2023/08/18 05:38:28;;;;;;;;;82.00;59.00;;;;;25.28;56.76;101251.89;110042;1266;19333;-81
2023/08/18 05:40:55;;;;;;;;;59.67;47.67;;;;;25.27;56.76;101241.64;110007;1251;20061;-81
2023/08/18 05:43:21;;;;;;;;;53.50;42.50;;;;;25.24;56.88;101240.19;110021;1251;20108;-79
2023/08/18 05:45:47;;;;;;;;;39.00;35.00;;;;;25.24;56.97;101237.84;109999;1265;19281;-79
2023/08/18 05:48:13;;;;;;;;;38.50;32.50;;;;;25.25;56.91;101238.05;110080;1265;18686;-82
2023/08/18 05:50:39;;;;;;;;;29.00;27.00;;;;;25.27;56.87;101242.58;110005;1250;18765;-82
2023/08/18 05:53:05;;;;;;;;;30.50;26.00;;;;;25.29;56.63;101233.79;110046;1250;23056;-79
2023/08/18 05:55:31;;;;;;;;;24.00;23.00;;;;;25.28;56.70;101230.71;110043;1266;22169;-81
2023/08/18 05:57:57;;;;;;;;;25.50;23.50;;;;;25.28;56.93;101223.96;110026;1251;22722;-80
2023/08/18 06:00:23;;;;;;;;;26.00;21.00;;;;;25.24;57.17;101217.38;110029;1251;22223;-81
2023/08/18 06:02:49;;;;;;;;;25.00;21.50;;;;;25.20;57.36;101204.20;109997;1265;22238;-81
2023/08/18 06:05:15;;;;;;;;;34.00;29.00;;;;;25.21;57.25;101190.75;109970;1251;20232;-81
2023/08/18 06:07:41;;;;;;;;;35.00;29.00;;;;;25.18;57.41;101181.95;110002;1250;22720;-81
2023/08/18 06:10:07;;;;;;;;;25.00;24.50;;;;;25.13;57.63;101175.92;110023;1265;20353;-83
2023/08/18 06:12:33;;;;;;;;;33.00;26.00;;;;;25.04;58.40;101171.90;109992;1251;20870;-80
2023/08/18 06:14:59;;;;;;;;;24.00;21.00;;;;;25.10;58.26;101177.88;109937;1266;22830;-79
2023/08/18 06:17:25;;;;;;;;;23.00;20.50;;;;;25.15;58.21;101186.14;109936;1266;23698;-78
2023/08/18 06:19:51;;;;;;;;;24.00;20.00;;;;;25.14;58.07;101191.98;109946;1266;23201;-78
2023/08/18 06:22:17;;;;;;;;;24.00;21.00;;;;;25.15;58.22;101202.82;109932;1265;22475;-77
2023/08/18 06:24:43;;;;;;;;;25.00;22.00;;;;;25.21;58.08;101211.75;109947;1266;20777;-79
2023/08/18 06:27:09;;;;;;;;;68.00;55.00;;;;;25.11;58.11;101214.48;109930;1251;20734;-79
2023/08/18 06:29:35;;;;;;;;;32.00;30.00;;;;;25.03;58.25;101223.66;109947;1260;20110;-77
2023/08/18 06:32:01;;;;;;;;;26.00;24.00;;;;;25.13;57.80;101226.41;109997;1266;19406;-77
2023/08/18 06:34:27;;;;;;;;;28.00;24.00;;;;;25.24;57.41;101233.00;110020;1266;19670;-78
2023/08/18 06:36:53;;;;;;;;;25.67;24.00;;;;;25.30;57.42;101235.91;109990;1266;20090;-77
2023/08/18 06:39:19;;;;;;;;;23.00;21.00;;;;;25.42;57.33;101240.67;109951;1266;19978;-77
2023/08/18 06:41:45;;;;;;;;;23.00;20.00;;;;;25.46;57.41;101235.91;109987;1251;23150;-77
2023/08/18 06:44:12;;;;;;;;;22.00;19.50;;;;;25.54;57.33;101235.02;110008;1251;21550;-77
2023/08/18 06:46:38;;;;;;;;;26.00;22.00;;;;;25.64;57.37;101237.60;109995;1265;19193;-79
2023/08/18 06:49:04;;;;;;;;;24.00;20.00;;;;;25.71;57.68;101248.08;109999;1266;21954;-76
2023/08/18 06:51:30;;;;;;;;;24.00;20.00;;;;;25.78;57.35;101261.88;110004;1260;21474;-76
2023/08/18 06:53:56;;;;;;;;;17.50;17.00;;;;;25.74;56.62;101265.06;109991;1251;20056;-79
2023/08/18 06:56:22;;;;;;;;;17.50;17.50;;;;;25.80;56.30;101273.16;109925;1265;19293;-79
2023/08/18 06:58:48;;;;;;;;;21.00;18.00;;;;;25.82;55.95;101275.88;109945;1259;20116;-74
2023/08/18 07:01:14;;;;;;;;;20.00;18.00;;;;;25.76;55.63;101276.83;109941;1265;23583;-81
2023/08/18 07:03:40;;;;;;;;;19.50;17.50;;;;;25.74;55.74;101277.34;109990;1250;20909;-77
2023/08/18 07:06:06;;;;;;;;;15.00;15.00;;;;;25.79;55.69;101280.25;110005;1266;21627;-80
2023/08/18 07:08:32;;;;;;;;;17.00;16.50;;;;;25.91;55.72;101276.55;109999;1266;19249;-79
2023/08/18 07:10:58;;;;;;;;;18.50;16.50;;;;;26.01;55.19;101272.91;110048;1250;22100;-85
2023/08/18 07:13:24;;;;;;;;;14.50;12.50;;;;;26.06;55.40;101266.57;110012;1250;22797;-82
2023/08/18 07:15:50;;;;;;;;;16.00;14.00;;;;;26.08;55.05;101265.94;109991;1265;19003;-81
2023/08/18 07:18:16;;;;;;;;;16.00;14.00;;;;;26.07;55.27;101271.05;109998;1250;20962;-81
2023/08/18 07:20:43;;;;;;;;;16.50;16.00;;;;;26.15;54.76;101277.05;110024;1265;20233;-80
2023/08/18 07:23:09;;;;;;;;;18.50;14.00;;;;;26.18;54.41;101279.92;110023;1250;22866;-83
2023/08/18 07:25:35;;;;;;;;;17.00;16.50;;;;;26.17;54.31;101285.81;109979;1251;21959;-79
2023/08/18 07:28:01;;;;;;;;;18.00;17.00;;;;;26.23;54.38;101285.73;109924;1266;20049;-79
2023/08/18 07:30:27;;;;;;;;;18.00;16.00;;;;;26.31;53.80;101283.55;109821;1260;162176;-80
2023/08/18 07:32:54;;;;;;;;;18.00;16.00;;;;;26.32;53.97;101278.89;109953;1265;22309;-80
2023/08/18 07:35:20;;;;;;;;;13.00;13.00;;;;;26.34;54.32;101278.59;109973;1251;22724;-78
2023/08/18 07:37:46;;;;;;;;;13.33;13.33;;;;;26.36;54.44;101277.03;109998;1254;23439;-77
2023/08/18 07:40:12;;;;;;;;;11.50;11.50;;;;;26.37;54.10;101282.73;110020;1265;19432;-78
2023/08/18 07:42:38;;;;;;;;;16.00;14.00;;;;;26.42;54.23;101283.64;109990;1251;21561;-78
2023/08/18 07:45:04;;;;;;;;;14.00;13.00;;;;;26.45;54.04;101281.03;110007;1251;20042;-79
2023/08/18 07:47:31;;;;;;;;;13.00;12.00;;;;;26.45;53.95;101281.30;110000;1250;20884;-78
2023/08/18 07:49:57;;;;;;;;;13.00;12.00;;;;;26.50;53.93;101286.90;109981;1251;21538;-81
2023/08/18 07:52:23;;;;;;;;;14.50;12.00;;;;;26.51;53.71;101284.91;109951;1260;20298;-76
2023/08/18 07:54:50;;;;;;;;;14.00;13.00;;;;;26.49;53.80;101287.73;109942;1251;23863;-76
2023/08/18 07:57:16;;;;;;;;;16.50;14.00;;;;;26.45;53.66;101287.08;110021;1251;22438;-78
2023/08/18 07:59:42;;;;;;;;;20.00;19.00;;;;;26.44;53.52;101291.36;109981;1265;19012;-78
2023/08/18 08:02:08;;;;;;;;;25.00;22.00;;;;;26.43;54.00;101293.74;110001;1265;19473;-78
2023/08/18 08:04:34;;;;;;;;;24.00;20.50;;;;;26.40;55.06;101295.20;109984;1266;20211;-79
2023/08/18 08:07:00;;;;;;;;;19.00;17.00;;;;;26.46;54.64;101296.45;109949;1250;22742;-80
2023/08/18 08:09:26;;;;;;;;;19.00;17.50;;;;;26.47;54.60;101298.70;109988;1266;23039;-80
2023/08/18 08:11:52;;;;;;;;;15.00;15.00;;;;;26.46;54.56;101299.64;109997;1265;22213;-78
2023/08/18 08:14:18;;;;;;;;;15.50;14.00;;;;;26.47;54.61;101300.29;109995;1266;19432;-78
2023/08/18 08:16:44;;;;;;;;;17.00;15.00;;;;;26.46;54.50;101296.99;109970;1266;19587;-78
2023/08/18 08:19:10;;;;;;;;;15.00;14.00;;;;;26.45;54.30;101299.20;109940;1251;21445;-78
2023/08/18 08:21:36;;;;;;;;;17.67;17.67;;;;;26.43;54.18;101296.84;109967;1266;19245;-79
2023/08/18 08:24:03;;;;;;;;;19.00;14.00;;;;;26.43;54.25;101297.86;109988;1265;20756;-78
2023/08/18 08:26:30;;;;;;;;;14.00;13.50;;;;;26.44;53.96;101298.90;110025;1265;21494;-79
2023/08/18 08:28:56;;;;;;;;;19.50;17.00;;;;;26.46;53.79;101297.34;110013;1251;20040;-79
2023/08/18 08:31:22;;;;;;;;;17.00;15.00;;;;;26.48;53.48;101298.08;109945;1266;21118;-78
2023/08/18 08:33:48;;;;;;;;;17.00;14.00;;;;;26.45;53.50;101301.20;109978;1251;22948;-78
2023/08/18 08:36:14;;;;;;;;;15.50;14.00;;;;;26.44;53.46;101303.73;109985;1251;22869;-78
2023/08/18 08:38:40;;;;;;;;;14.50;13.00;;;;;26.47;53.35;101303.15;109931;1266;19360;-79
2023/08/18 08:41:06;;;;;;;;;16.00;12.67;;;;;26.42;53.24;101303.44;110000;1251;21561;-79
2023/08/18 08:43:32;;;;;;;;;14.00;12.00;;;;;26.42;53.11;101298.38;109997;1266;23256;-78
2023/08/18 08:45:58;;;;;;;;;15.00;14.00;;;;;26.45;52.96;101298.61;110028;1250;22376;-79
2023/08/18 08:48:24;;;;;;;;;14.00;14.00;;;;;26.47;52.79;101297.55;109979;1250;22993;-79
2023/08/18 08:50:50;;;;;;;;;12.50;12.00;;;;;26.46;52.79;101299.80;110007;1250;22968;-80
2023/08/18 08:53:17;;;;;;;;;12.00;11.00;;;;;26.47;52.85;101299.52;110035;1265;23489;-80
2023/08/18 08:55:44;;;;;;;;;14.00;13.00;;;;;26.43;52.92;101295.83;110029;1250;21536;-79
2023/08/18 08:58:11;;;;;;;;;11.67;11.33;;;;;26.41;53.06;101290.42;109967;1250;20080;-79
2023/08/18 09:00:37;;;;;;;;;12.00;9.00;;;;;26.50;52.90;101289.05;109969;1259;23577;-80
2023/08/18 09:03:03;;;;;;;;;14.00;13.00;;;;;26.53;52.72;101288.77;109978;1266;19900;-80
2023/08/18 09:05:29;;;;;;;;;14.00;13.50;;;;;26.54;52.92;101283.04;109959;1265;21914;-80
2023/08/18 09:07:55;;;;;;;;;12.00;11.00;;;;;26.56;52.75;101283.95;109975;1266;19447;-78
2023/08/18 09:10:21;;;;;;;;;13.00;12.00;;;;;26.60;52.56;101283.34;109931;1266;22540;-81
2023/08/18 09:12:47;;;;;;;;;15.00;15.00;;;;;26.59;52.85;101280.66;109976;1250;22527;-78
2023/08/18 09:15:13;;;;;;;;;14.00;12.00;;;;;26.57;52.74;101275.53;110005;1265;20894;-78
2023/08/18 09:17:39;;;;;;;;;12.33;12.00;;;;;26.62;52.54;101275.91;110000;1260;22891;-79
2023/08/18 09:20:05;;;;;;;;;13.00;12.00;;;;;26.64;52.48;101271.91;109953;1251;19882;-78
2023/08/18 09:22:31;;;;;;;;;11.00;11.00;;;;;26.65;52.51;101270.91;109951;1251;20873;-77
2023/08/18 09:24:57;;;;;;;;;12.00;12.00;;;;;26.64;52.62;101272.13;109986;1265;22400;-77
2023/08/18 09:27:23;;;;;;;;;15.00;15.00;;;;;26.65;53.25;101265.13;110013;1250;21799;-77
2023/08/18 09:29:50;;;;;;;;;15.00;14.00;;;;;26.67;53.48;101264.01;109994;1266;19486;-79
2023/08/18 09:32:16;;;;;;;;;12.00;12.00;;;;;26.73;53.25;101261.98;110017;1259;22084;-77
2023/08/18 09:34:42;;;;;;;;;16.00;14.00;;;;;26.72;53.58;101261.40;110010;1266;22961;-76
2023/08/18 09:37:08;;;;;;;;;11.00;11.00;;;;;26.78;52.75;101257.57;109952;1265;20765;-79
2023/08/18 09:39:34;;;;;;;;;13.00;12.00;;;;;26.60;53.67;101254.33;110004;1266;20134;-76
2023/08/18 09:42:00;;;;;;;;;12.00;11.50;;;;;26.48;54.03;101254.17;109976;1250;20056;-76
2023/08/18 09:44:27;;;;;;;;;11.00;11.00;;;;;26.39;54.32;101248.03;109958;1265;19650;-77
2023/08/18 09:46:53;;;;;;;;;11.00;9.00;;;;;26.37;54.57;101249.00;109956;1251;22764;-77
2023/08/18 09:49:19;;;;;;;;;8.67;8.00;;;;;26.46;54.00;101245.36;109971;1266;22568;-78
2023/08/18 09:51:46;;;;;;;;;9.00;9.00;;;;;26.43;54.24;101245.67;109967;1265;22866;-77
2023/08/18 09:54:12;;;;;;;;;8.00;8.00;;;;;26.39;54.50;101244.30;110016;1251;22942;-76
2023/08/18 09:56:38;;;;;;;;;9.00;8.00;;;;;26.38;54.55;101238.61;110013;1265;19146;-78
2023/08/18 09:59:04;;;;;;;;;12.00;12.00;;;;;26.37;54.22;101239.60;110000;1251;24544;-79
2023/08/18 10:01:30;;;;;;;;;11.00;11.00;;;;;26.46;54.00;101239.80;109991;1266;19904;-79
2023/08/18 10:03:56;;;;;;;;;11.00;9.00;;;;;26.58;53.69;101240.63;110003;1250;20907;-78
2023/08/18 10:06:22;;;;;;;;;9.00;9.00;;;;;26.66;53.25;101237.98;110014;1266;19459;-78
2023/08/18 10:08:48;;;;;;;;;12.00;11.00;;;;;26.60;52.95;101244.00;109993;1250;19918;-76
2023/08/18 10:11:14;;;;;;;;;13.50;11.00;;;;;26.71;52.17;101243.60;109945;1259;22421;-78
2023/08/18 10:13:40;;;;;;;;;12.50;9.00;;;;;26.68;52.33;101250.13;109955;1265;19422;-79
2023/08/18 10:16:06;;;;;;;;;7.00;7.00;;;;;26.56;52.97;101251.81;109921;1251;21475;-79
2023/08/18 10:18:32;;;;;;;;;11.00;9.00;;;;;26.50;53.13;101247.61;110003;1265;20305;-76
2023/08/18 10:20:58;;;;;;;;;8.50;8.50;;;;;26.57;52.70;101247.11;110022;1250;23691;-77
2023/08/18 10:23:24;;;;;;;;;9.00;8.00;;;;;26.48;53.12;101249.17;110029;1251;21465;-77
2023/08/18 10:25:50;;;;;;;;;8.00;8.00;;;;;26.39;53.64;101246.16;109984;1251;22750;-77
2023/08/18 10:28:18;;;;;;;;;7.00;7.00;;;;;26.37;53.99;101250.55;109954;1250;23455;-77
2023/08/18 10:30:44;;;;;;;;;7.00;7.00;;;;;26.33;54.06;101246.30;109954;1266;20328;-79
2023/08/18 10:33:10;;;;;;;;;9.00;7.00;;;;;26.33;54.15;101246.70;109955;1251;19618;-79
2023/08/18 10:35:39;;;;;;;;;7.00;7.00;;;;;26.33;54.18;101248.77;109965;1250;22002;-79
2023/08/18 10:38:05;;;;;;;;;8.00;8.00;;;;;26.34;54.42;101244.61;109950;1267;20033;-78
2023/08/18 10:40:31;;;;;;;;;5.00;5.00;;;;;26.34;54.63;101244.10;109995;1265;19192;-78
2023/08/18 10:42:57;;;;;;;;;5.00;5.00;;;;;26.36;54.56;101242.74;109975;1265;19613;-78
2023/08/18 10:45:24;;;;;;;;;7.00;6.00;;;;;26.37;54.69;101238.45;110030;1258;20301;-78
2023/08/18 10:47:50;;;;;;;;;6.00;6.00;;;;;26.38;54.83;101242.13;110001;1250;19639;-79
2023/08/18 10:50:16;;;;;;;;;4.00;4.00;;;;;26.36;55.05;101237.41;110043;1266;19364;-79
2023/08/18 10:52:43;;;;;;;;;6.33;6.00;;;;;26.35;55.07;101237.98;110036;1251;22825;-79
2023/08/18 10:55:09;;;;;;;;;6.00;6.00;;;;;26.37;55.25;101240.88;110045;1250;20936;-77
2023/08/18 10:57:37;;;;;;;;;4.00;4.00;;;;;26.39;55.17;101247.44;110046;1266;19532;-76